createdAt,value
2019-02-14T00:02:25.231Z,103276.14
2019-02-14T00:04:58.043Z,103284.63
2019-02-14T00:07:28.374Z,103294.00
2019-02-14T00:09:58.705Z,103290.11
2019-02-14T00:12:29.023Z,103292.24
2019-02-14T00:14:59.685Z,103303.01
2019-02-14T00:17:30.316Z,103300.61
2019-02-14T00:20:01.004Z,103300.80
2019-02-14T00:22:33.561Z,103300.39
2019-02-14T00:25:06.299Z,103294.88
2019-02-14T00:27:36.926Z,103293.11
2019-02-14T00:30:07.664Z,103297.41
2019-02-14T00:32:38.296Z,103294.15
2019-02-14T00:35:10.452Z,103292.66
2019-02-14T00:37:41.132Z,103290.35
2019-02-14T00:40:11.713Z,103289.67
2019-02-14T00:42:42.066Z,103294.79
2019-02-14T00:45:14.009Z,103285.11
2019-02-14T00:47:44.334Z,103293.92
2019-02-14T00:50:16.960Z,103302.41
2019-02-14T00:52:47.478Z,103295.67
2019-02-14T00:55:18.055Z,103301.55
2019-02-14T00:57:50.241Z,103297.61
2019-02-14T01:00:20.671Z,103301.98
2019-02-14T01:02:51.249Z,103301.04
2019-02-14T01:05:21.831Z,103302.30
2019-02-14T01:07:52.436Z,103298.19
2019-02-14T01:10:23.026Z,103295.88
2019-02-14T01:12:53.645Z,103294.91
2019-02-14T01:15:27.245Z,103287.13
2019-02-14T01:17:57.724Z,103293.59
2019-02-14T01:20:28.335Z,103293.45
2019-02-14T01:22:59.197Z,103293.45
2019-02-14T01:25:29.566Z,103290.39
2019-02-14T01:27:59.982Z,103280.59
2019-02-14T01:30:32.220Z,103280.59
2019-02-14T01:33:02.655Z,103281.45
2019-02-14T01:35:33.036Z,103285.02
2019-02-14T01:38:03.805Z,103284.92
2019-02-14T01:40:34.369Z,103285.11
2019-02-14T01:43:07.304Z,103283.84
2019-02-14T01:45:37.638Z,103286.05
2019-02-14T01:48:08.058Z,103280.81
2019-02-14T01:50:38.409Z,103289.02
2019-02-14T01:53:08.814Z,103288.48
2019-02-14T01:55:39.259Z,103288.70
2019-02-14T01:58:09.947Z,103279.22
2019-02-14T02:00:40.330Z,103280.34
2019-02-14T02:03:11.766Z,103286.12
2019-02-14T02:05:50.422Z,103282.69
2019-02-14T02:08:14.398Z,103279.33
2019-02-14T02:10:45.002Z,103269.08
2019-02-14T02:13:15.306Z,103272.55
2019-02-14T02:15:45.694Z,103276.41
2019-02-14T02:18:17.562Z,103275.73
2019-02-14T02:20:48.903Z,103268.88
2019-02-14T02:23:19.242Z,103277.50
2019-02-14T02:25:49.660Z,103270.16
2019-02-14T02:28:20.974Z,103263.08
2019-02-14T02:30:51.330Z,103262.77
2019-02-14T02:33:23.419Z,103274.39
2019-02-14T02:36:00.151Z,103272.12
2019-02-14T02:38:26.948Z,103276.45
2019-02-14T02:40:57.426Z,103278.63
2019-02-14T02:43:27.763Z,103279.63
2019-02-14T02:45:58.092Z,103278.00
2019-02-14T02:48:28.398Z,103281.91
2019-02-14T02:50:58.663Z,103278.02
2019-02-14T02:53:28.945Z,103278.23
2019-02-14T02:55:59.814Z,103278.55
2019-02-14T02:58:30.069Z,103275.70
2019-02-14T03:01:00.344Z,103279.38
2019-02-14T03:03:30.853Z,103277.33
2019-02-14T03:06:08.635Z,103272.42
2019-02-14T03:08:33.231Z,103281.69
2019-02-14T03:11:04.770Z,103290.06
2019-02-14T03:13:36.062Z,103287.59
2019-02-14T03:16:06.381Z,103291.35
2019-02-14T03:18:36.938Z,103288.80
2019-02-14T03:21:07.298Z,103283.97
2019-02-14T03:23:37.605Z,103284.72
2019-02-14T03:26:08.231Z,103284.36
2019-02-14T03:28:38.528Z,103286.16
2019-02-14T03:31:08.949Z,103288.55
2019-02-14T03:33:40.520Z,103286.92
2019-02-14T03:36:18.612Z,103285.55
2019-02-14T03:38:43.293Z,103289.58
2019-02-14T03:41:13.593Z,103289.73
2019-02-14T03:43:45.603Z,103291.45
2019-02-14T03:46:15.879Z,103288.23
2019-02-14T03:48:46.188Z,103287.37
2019-02-14T03:51:16.748Z,103293.29
2019-02-14T03:53:47.293Z,103301.37
2019-02-14T03:56:17.868Z,103292.65
2019-02-14T03:58:48.162Z,103293.73
2019-02-14T04:01:18.823Z,103284.95
2019-02-14T04:03:49.142Z,103292.71
2019-02-14T04:06:27.286Z,103288.95
2019-02-14T04:08:51.970Z,103293.83
2019-02-14T04:11:22.290Z,103287.75
2019-02-14T04:13:52.876Z,103292.18
2019-02-14T04:16:24.541Z,103295.97
2019-02-14T04:18:54.826Z,103295.97
2019-02-14T04:21:25.161Z,103295.09
2019-02-14T04:23:55.472Z,103298.96
2019-02-14T04:26:25.757Z,103291.89
2019-02-14T04:28:56.347Z,103299.02
2019-02-14T04:31:26.831Z,103303.55
2019-02-14T04:33:58.722Z,103305.09
2019-02-14T04:36:35.823Z,103311.14
2019-02-14T04:39:01.902Z,103306.69
2019-02-14T04:41:33.225Z,103309.43
2019-02-14T04:44:05.295Z,103303.78
2019-02-14T04:46:35.680Z,103306.69
2019-02-14T04:49:07.089Z,103312.70
2019-02-14T04:51:37.758Z,103317.48
2019-02-14T04:54:08.382Z,103312.69
2019-02-14T04:56:39.122Z,103314.02
2019-02-14T04:59:12.374Z,103312.95
2019-02-14T05:01:42.646Z,103311.39
2019-02-14T05:04:12.940Z,103306.80
2019-02-14T05:06:44.479Z,103304.19
2019-02-14T05:09:15.211Z,103311.29
2019-02-14T05:11:45.543Z,103309.64
2019-02-14T05:14:16.165Z,103308.05
2019-02-14T05:16:46.799Z,103305.31
2019-02-14T05:19:17.089Z,103309.70
2019-02-14T05:21:47.689Z,103314.74
2019-02-14T05:24:19.063Z,103311.73
2019-02-14T05:26:50.104Z,103324.26
2019-02-14T05:29:20.382Z,103329.77
2019-02-14T05:31:51.279Z,103321.63
2019-02-14T05:34:21.622Z,103319.67
2019-02-14T05:36:55.230Z,103322.20
2019-02-14T05:39:25.303Z,103316.09
2019-02-14T05:41:55.921Z,103322.41
2019-02-14T05:44:26.201Z,103331.41
2019-02-14T05:46:56.769Z,103334.84
2019-02-14T05:49:27.195Z,103335.61
2019-02-14T05:51:57.503Z,103333.99
2019-02-14T05:54:27.805Z,103334.94
2019-02-14T05:56:58.147Z,103343.56
2019-02-14T05:59:28.708Z,103332.19
2019-02-14T06:01:59.040Z,103332.19
2019-02-14T06:04:29.322Z,103335.89
2019-02-14T06:07:01.291Z,103340.19
2019-02-14T06:09:32.077Z,103338.28
2019-02-14T06:12:02.380Z,103344.23
2019-02-14T06:14:34.403Z,103345.93
2019-02-14T06:17:04.682Z,103339.64
2019-02-14T06:19:36.946Z,103345.75
2019-02-14T06:22:07.305Z,103338.63
2019-02-14T06:24:37.876Z,103349.23
2019-02-14T06:27:08.231Z,103344.23
2019-02-14T06:29:40.935Z,103343.47
2019-02-14T06:32:11.308Z,103348.16
2019-02-14T06:34:41.595Z,103359.03
2019-02-14T06:37:12.228Z,103367.03
2019-02-14T06:39:42.609Z,103366.17
2019-02-14T06:42:13.128Z,103370.85
2019-02-14T06:44:43.510Z,103369.23
2019-02-14T06:47:14.101Z,103375.68
2019-02-14T06:49:44.568Z,103371.89
2019-02-14T06:52:15.017Z,103381.91
2019-02-14T06:54:45.609Z,103381.57
2019-02-14T06:57:17.520Z,103373.25
2019-02-14T06:59:47.945Z,103373.25
2019-02-14T07:02:19.587Z,103372.64
2019-02-14T07:04:50.184Z,103377.25
2019-02-14T07:07:21.343Z,103392.33
2019-02-14T07:09:51.609Z,103387.68
2019-02-14T07:12:22.320Z,103392.86
2019-02-14T07:14:52.676Z,103389.41
2019-02-14T07:17:25.420Z,103392.97
2019-02-14T07:19:55.853Z,103394.73
2019-02-14T07:22:26.351Z,103401.02
2019-02-14T07:24:56.748Z,103392.67
2019-02-14T07:27:27.055Z,103392.63
2019-02-14T07:29:57.673Z,103392.96
2019-02-14T07:32:29.076Z,103391.78
2019-02-14T07:35:00.016Z,103392.74
2019-02-14T07:37:30.382Z,103385.44
2019-02-14T07:40:01.444Z,103396.88
2019-02-14T07:42:31.815Z,103401.50
2019-02-14T07:45:02.445Z,103396.72
2019-02-14T07:47:32.983Z,103396.14
2019-02-14T07:50:03.315Z,103400.05
2019-02-14T07:52:33.611Z,103401.17
2019-02-14T07:55:03.949Z,103403.31
2019-02-14T07:57:37.256Z,103398.00
2019-02-14T08:00:10.601Z,103397.50
2019-02-14T08:02:41.492Z,103388.39
2019-02-14T08:05:12.233Z,103383.98
2019-02-14T08:07:42.601Z,103373.83
2019-02-14T08:10:13.840Z,103370.71
2019-02-14T08:12:44.387Z,103371.03
2019-02-14T08:15:17.016Z,103367.30
2019-02-14T08:17:47.566Z,103363.88
2019-02-14T08:20:18.879Z,103365.91
2019-02-14T08:22:49.198Z,103367.23
2019-02-14T08:25:19.829Z,103369.27
2019-02-14T08:27:50.248Z,103374.14
2019-02-14T08:30:20.655Z,103372.68
2019-02-14T08:32:50.928Z,103370.60
2019-02-14T08:35:21.219Z,103365.36
2019-02-14T08:37:51.545Z,103356.42
2019-02-14T08:40:23.938Z,103333.69
2019-02-14T08:42:54.521Z,103326.50
2019-02-14T08:45:25.119Z,103338.76
2019-02-14T08:47:55.469Z,103329.87
2019-02-14T08:50:29.738Z,103331.08
2019-02-14T08:53:00.218Z,103326.02
2019-02-14T08:55:30.529Z,103323.65
2019-02-14T08:58:01.187Z,103315.30
2019-02-14T09:00:34.146Z,103317.26
2019-02-14T09:03:04.756Z,103331.73
2019-02-14T09:05:35.325Z,103338.47
2019-02-14T09:08:07.880Z,103352.53
2019-02-14T09:10:38.778Z,103362.96
2019-02-14T09:13:17.025Z,103356.31
2019-02-14T09:15:43.847Z,103358.89
2019-02-14T09:18:14.289Z,103358.05
2019-02-14T09:20:44.671Z,103340.02
2019-02-14T09:23:15.025Z,103336.88
2019-02-14T09:25:47.742Z,103341.74
2019-02-14T09:28:18.082Z,103344.70
2019-02-14T09:30:48.387Z,103340.19
2019-02-14T09:33:19.085Z,103337.02
2019-02-14T09:35:49.451Z,103336.84
2019-02-14T09:38:20.039Z,103332.18
2019-02-14T09:40:50.345Z,103323.06
2019-02-14T09:43:29.403Z,103297.32
2019-02-14T09:45:52.714Z,103297.32
2019-02-14T09:48:23.367Z,103301.82
2019-02-14T09:50:55.704Z,103291.22
2019-02-14T09:53:29.024Z,103288.80
2019-02-14T09:55:59.907Z,103288.80
2019-02-14T09:58:30.528Z,103299.00
2019-02-14T10:01:00.843Z,103290.88
2019-02-14T10:03:31.384Z,103288.23
2019-02-14T10:06:02.048Z,103276.64
2019-02-14T10:08:33.006Z,103274.97
2019-02-14T10:11:03.359Z,103274.59
2019-02-14T10:13:38.315Z,103271.81
2019-02-14T10:16:08.596Z,103268.66
2019-02-14T10:18:39.301Z,103271.73
2019-02-14T10:21:09.805Z,103261.92
2019-02-14T10:23:40.142Z,103266.27
2019-02-14T10:26:10.742Z,103267.22
2019-02-14T10:28:41.033Z,103267.22
2019-02-14T10:31:11.848Z,103263.69
2019-02-14T10:33:42.162Z,103258.91
2019-02-14T10:36:13.049Z,103258.31
2019-02-14T10:38:43.578Z,103271.47
2019-02-14T10:41:14.250Z,103293.11
2019-02-14T10:43:48.898Z,103315.34
2019-02-14T10:46:16.721Z,103328.13
2019-02-14T10:48:47.397Z,103339.15
2019-02-14T10:51:18.919Z,103335.67
2019-02-14T10:53:49.526Z,103336.19
2019-02-14T10:56:20.203Z,103336.72
2019-02-14T10:58:51.693Z,103342.45
2019-02-14T11:01:22.290Z,103338.25
2019-02-14T11:03:52.851Z,103342.11
2019-02-14T11:06:32.146Z,103339.31
2019-02-14T11:09:02.683Z,103339.20
2019-02-14T11:11:38.262Z,103337.03
2019-02-14T11:14:28.940Z,103338.69
2019-02-14T11:16:56.566Z,103336.95
2019-02-14T11:19:58.162Z,103333.88
2019-02-14T11:22:54.075Z,103336.05
2019-02-14T11:25:59.593Z,103337.19
2019-02-14T11:28:59.778Z,103331.84
2019-02-14T11:32:02.697Z,103323.12
2019-02-14T11:38:43.418Z,103315.22
2019-02-14T11:41:36.499Z,103301.91
2019-02-14T11:44:54.363Z,103297.99
2019-02-14T11:47:40.414Z,103300.16
2019-02-14T11:50:28.841Z,103290.42
2019-02-14T11:53:14.897Z,103290.72
2019-02-14T11:55:40.786Z,103283.81
2019-02-14T11:58:19.740Z,103279.56
2019-02-14T12:01:00.598Z,103271.09
2019-02-14T12:03:46.647Z,103267.91
2019-02-14T12:06:28.025Z,103274.80
2019-02-14T12:09:15.038Z,103273.59
2019-02-14T12:11:54.908Z,103274.48
2019-02-14T12:14:32.564Z,103268.18
2019-02-14T12:17:00.160Z,103269.27
2019-02-14T12:19:34.076Z,103261.09
2019-02-14T12:22:12.792Z,103255.36
2019-02-14T12:24:48.109Z,103255.86
2019-02-14T12:27:18.462Z,103242.11
2019-02-14T12:29:48.904Z,103248.25
2019-02-14T12:32:19.590Z,103230.06
2019-02-14T12:34:50.089Z,103229.94
2019-02-14T12:37:20.385Z,103219.98
2019-02-14T12:39:52.181Z,103217.50
2019-02-14T12:42:22.858Z,103210.41
2019-02-14T12:44:54.655Z,103214.34
2019-02-14T12:47:27.454Z,103211.28
2019-02-14T12:50:14.473Z,103207.42
2019-02-14T12:52:45.187Z,103215.14
2019-02-14T12:55:30.134Z,103209.45
2019-02-14T12:58:16.441Z,103209.94
2019-02-14T13:00:46.802Z,103214.19
2019-02-14T13:03:17.393Z,103205.38
2019-02-14T13:05:49.225Z,103207.94
2019-02-14T13:08:22.509Z,103205.64
2019-02-14T13:10:52.787Z,103205.95
2019-02-14T13:13:25.146Z,103210.39
2019-02-14T13:15:55.496Z,103207.09
2019-02-14T13:18:52.186Z,103208.72
2019-02-14T13:21:13.213Z,103209.73
2019-02-14T13:23:43.530Z,103211.98
2019-02-14T13:26:14.901Z,103210.31
2019-02-14T13:29:03.090Z,103218.42
2019-02-14T13:31:40.271Z,103211.09
2019-02-14T13:34:10.827Z,103210.39
2019-02-14T13:36:41.191Z,103209.47
2019-02-14T13:39:11.796Z,103205.20
2019-02-14T13:41:42.537Z,103207.32
2019-02-14T13:44:12.862Z,103203.52
2019-02-14T13:46:43.487Z,103197.44
2019-02-14T13:49:13.794Z,103197.44
2019-02-14T13:51:45.416Z,103194.40
2019-02-14T13:54:15.817Z,103192.01
2019-02-14T13:56:53.904Z,103186.51
2019-02-14T13:59:18.520Z,103177.17
2019-02-14T14:01:49.617Z,103181.35
2019-02-14T14:04:20.349Z,103174.55
2019-02-14T14:06:51.953Z,103176.50
2019-02-14T14:09:22.300Z,103180.38
2019-02-14T14:11:54.548Z,103176.97
2019-02-14T14:14:26.164Z,103170.41
2019-02-14T14:16:58.266Z,103163.89
2019-02-14T14:19:30.543Z,103162.53
2019-02-14T14:22:00.940Z,103160.89
2019-02-14T14:24:31.590Z,103160.73
2019-02-14T14:27:02.257Z,103155.08
2019-02-14T14:29:34.387Z,103151.20
2019-02-14T14:32:04.881Z,103141.23
2019-02-14T14:34:36.296Z,103142.69
2019-02-14T14:37:07.982Z,103138.93
2019-02-14T14:39:47.565Z,103135.86
2019-02-14T14:42:32.628Z,103132.22
2019-02-14T14:45:05.536Z,103136.58
2019-02-14T14:47:35.866Z,103130.31
2019-02-14T14:50:06.456Z,103130.05
2019-02-14T14:52:37.066Z,103129.19
2019-02-14T14:55:08.146Z,103118.72
2019-02-14T14:57:40.614Z,103115.14
2019-02-14T15:00:14.191Z,103117.42
2019-02-14T15:02:44.542Z,103118.78
2019-02-14T15:05:15.175Z,103118.72
2019-02-14T15:07:46.800Z,103119.44
2019-02-14T15:10:19.764Z,103116.59
2019-02-14T15:12:58.439Z,103112.88
2019-02-14T15:15:32.806Z,103112.53
2019-02-14T15:18:03.209Z,103101.67
2019-02-14T15:20:33.889Z,103102.87
2019-02-14T15:23:04.259Z,103102.77
2019-02-14T15:25:34.590Z,103105.66
2019-02-14T15:28:04.989Z,103099.02
2019-02-14T15:30:38.832Z,103099.10
2019-02-14T15:33:09.417Z,103093.23
2019-02-14T15:35:39.940Z,103093.23
2019-02-14T15:38:12.014Z,103096.55
2019-02-14T15:40:50.273Z,103091.17
2019-02-14T15:43:22.588Z,103090.99
2019-02-14T15:45:54.675Z,103094.48
2019-02-14T15:48:26.622Z,103090.86
2019-02-14T15:51:01.123Z,103090.86
2019-02-14T15:53:38.331Z,103086.33
2019-02-14T15:56:13.899Z,103093.66
2019-02-14T15:58:44.927Z,103096.23
2019-02-14T16:01:19.025Z,103088.92
2019-02-14T16:03:50.639Z,103079.88
2019-02-14T16:06:21.848Z,103079.88
2019-02-14T16:08:54.167Z,103085.63
2019-02-14T16:11:24.556Z,103091.67
2019-02-14T16:13:57.183Z,103093.85
2019-02-14T16:16:27.616Z,103092.18
2019-02-14T16:18:58.321Z,103093.55
2019-02-14T16:21:29.947Z,103090.50
2019-02-14T16:24:01.426Z,103084.42
2019-02-14T16:26:32.245Z,103082.03
2019-02-14T16:29:03.739Z,103088.66
2019-02-14T16:31:34.383Z,103092.42
2019-02-14T16:34:04.902Z,103091.91
2019-02-14T16:36:36.381Z,103089.73
2019-02-14T16:39:07.774Z,103094.78
2019-02-14T16:41:38.164Z,103087.47
2019-02-14T16:44:08.570Z,103089.85
2019-02-14T16:46:38.890Z,103082.02
2019-02-14T16:49:09.223Z,103085.55
2019-02-14T16:51:39.520Z,103089.78
2019-02-14T16:56:46.780Z,103091.45
2019-02-14T16:59:17.147Z,103091.13
2019-02-14T17:01:51.812Z,103092.25
2019-02-14T17:04:26.033Z,103092.14
2019-02-14T17:06:57.214Z,103089.50
2019-02-14T17:09:30.633Z,103087.16
2019-02-14T17:12:03.708Z,103089.81
2019-02-14T17:14:34.227Z,103096.34
2019-02-14T17:17:04.740Z,103096.82
2019-02-14T17:19:39.846Z,103096.82
2019-02-14T17:22:10.580Z,103101.98
2019-02-14T17:24:41.301Z,103101.30
2019-02-14T17:27:12.000Z,103107.50
2019-02-14T17:29:42.420Z,103104.45
2019-02-14T17:32:12.851Z,103099.39
2019-02-14T17:34:44.678Z,103106.54
2019-02-14T17:37:14.992Z,103098.64
2019-02-14T17:39:45.417Z,103104.05
2019-02-14T17:42:22.724Z,103108.72
2019-02-14T17:44:54.545Z,103105.41
2019-02-14T17:47:25.189Z,103107.11
2019-02-14T17:49:56.890Z,103111.88
2019-02-14T17:52:30.027Z,103106.06
2019-02-14T17:55:13.218Z,103105.30
2019-02-14T17:57:37.258Z,103111.45
2019-02-14T18:00:10.218Z,103115.63
2019-02-14T18:02:42.030Z,103112.89
2019-02-14T18:07:49.647Z,103109.91
2019-02-14T18:10:24.452Z,103111.63
2019-02-14T18:12:56.464Z,103109.11
2019-02-14T18:15:34.303Z,103112.81
2019-02-14T18:18:05.274Z,103111.92
2019-02-14T18:20:40.220Z,103113.72
2019-02-14T18:23:10.894Z,103110.56
2019-02-14T18:25:43.768Z,103113.39
2019-02-14T18:28:14.492Z,103117.84
2019-02-14T18:30:45.151Z,103116.98
2019-02-14T18:33:15.728Z,103123.58
2019-02-14T18:35:51.197Z,103122.58
2019-02-14T18:38:21.714Z,103124.24
2019-02-14T18:41:03.841Z,103123.20
2019-02-14T18:43:29.383Z,103121.79
2019-02-14T18:46:00.161Z,103109.06
2019-02-14T18:48:33.054Z,103113.38
2019-02-14T18:51:06.169Z,103113.38
2019-02-14T18:53:36.723Z,103112.88
2019-02-14T18:56:07.284Z,103110.86
2019-02-14T18:58:37.659Z,103115.95
2019-02-14T19:01:09.260Z,103109.55
2019-02-14T19:03:41.013Z,103114.53
2019-02-14T19:06:15.665Z,103109.89
2019-02-14T19:08:46.112Z,103108.35
2019-02-14T19:11:16.756Z,103101.58
2019-02-14T19:13:47.394Z,103106.28
2019-02-14T19:16:17.703Z,103102.56
2019-02-14T19:18:48.536Z,103105.11
2019-02-14T19:21:22.485Z,103099.77
2019-02-14T19:23:54.849Z,103105.23
2019-02-14T19:26:25.298Z,103105.02
2019-02-14T19:28:55.739Z,103107.20
2019-02-14T19:31:26.234Z,103107.46
2019-02-14T19:33:59.266Z,103107.64
2019-02-14T19:36:31.488Z,103107.64
2019-02-14T19:39:02.070Z,103105.36
2019-02-14T19:41:37.693Z,103099.75
2019-02-14T19:44:08.398Z,103099.52
2019-02-14T19:46:43.435Z,103099.14
2019-02-14T19:49:14.259Z,103100.27
2019-02-14T19:51:44.701Z,103100.38
2019-02-14T19:54:17.913Z,103091.99
2019-02-14T19:57:01.067Z,103096.34
2019-02-14T19:59:35.272Z,103100.16
2019-02-14T20:02:08.329Z,103096.83
2019-02-14T20:04:38.659Z,103092.18
2019-02-14T20:07:10.221Z,103089.80
2019-02-14T20:09:43.601Z,103089.88
2019-02-14T20:12:15.642Z,103095.39
2019-02-14T20:14:46.270Z,103095.39
2019-02-14T20:17:16.846Z,103101.05
2019-02-14T20:19:53.692Z,103104.38
2019-02-14T20:22:24.410Z,103091.75
2019-02-14T20:24:55.250Z,103091.75
2019-02-14T20:27:25.664Z,103095.68
2019-02-14T20:29:59.392Z,103093.23
2019-02-14T20:32:30.050Z,103080.58
2019-02-14T20:35:01.795Z,103084.04
2019-02-14T20:37:34.578Z,103082.14
2019-02-14T20:40:06.938Z,103077.14
2019-02-14T20:42:42.293Z,103071.81
2019-02-14T20:45:14.904Z,103079.96
2019-02-14T20:47:47.147Z,103081.96
2019-02-14T20:50:17.945Z,103076.09
2019-02-14T20:52:48.953Z,103079.88
2019-02-14T20:55:25.051Z,103083.45
2019-02-14T20:57:52.901Z,103078.09
2019-02-14T21:00:34.157Z,103079.27
2019-02-14T21:03:05.234Z,103082.64
2019-02-14T21:05:35.644Z,103079.31
2019-02-14T21:08:09.495Z,103086.25
2019-02-14T21:10:42.614Z,103073.54
2019-02-14T21:13:13.388Z,103077.14
2019-02-14T21:15:45.613Z,103073.95
2019-02-14T21:18:18.618Z,103071.73
2019-02-14T21:20:49.302Z,103067.90
2019-02-14T21:23:22.923Z,103068.27
2019-02-14T21:25:53.505Z,103066.56
2019-02-14T21:28:24.309Z,103065.91
2019-02-14T21:30:54.783Z,103068.35
2019-02-14T21:33:28.938Z,103064.54
2019-02-14T21:35:59.308Z,103060.94
2019-02-14T21:38:32.024Z,103064.64
2019-02-14T21:41:05.801Z,103063.84
2019-02-14T21:43:39.784Z,103056.84
2019-02-14T21:46:10.642Z,103056.70
2019-02-14T21:48:42.719Z,103050.08
2019-02-14T21:51:13.386Z,103053.37
2019-02-14T21:53:46.003Z,103056.08
2019-02-14T21:56:16.378Z,103057.84
2019-02-14T21:58:59.187Z,103060.43
2019-02-14T22:01:54.784Z,103059.65
2019-02-14T22:04:45.111Z,103062.53
2019-02-14T22:07:35.750Z,103059.70
2019-02-14T22:10:07.052Z,103062.34
2019-02-14T22:12:41.382Z,103060.63
2019-02-14T22:17:48.374Z,103067.59
2019-02-14T22:20:18.733Z,103066.86
2019-02-14T22:22:49.099Z,103065.69
2019-02-14T22:25:19.591Z,103061.48
2019-02-14T22:27:51.401Z,103059.43
2019-02-14T22:30:21.739Z,103060.41
2019-02-14T22:32:52.117Z,103062.52
2019-02-14T22:35:22.689Z,103066.72
2019-02-14T22:37:54.537Z,103073.54
2019-02-14T22:40:26.429Z,103065.70
2019-02-14T22:42:56.915Z,103068.52
2019-02-14T22:45:27.255Z,103072.11
2019-02-14T22:47:59.166Z,103067.53
2019-02-14T22:50:29.849Z,103067.45
2019-02-14T22:53:05.906Z,103073.38
2019-02-14T22:55:39.693Z,103064.86
2019-02-14T22:58:10.179Z,103061.33
2019-02-14T23:00:55.316Z,103064.84
2019-02-14T23:03:26.291Z,103059.94
2019-02-14T23:05:57.871Z,103063.19
2019-02-14T23:08:29.184Z,103059.63
2019-02-14T23:10:59.483Z,103058.23
2019-02-14T23:13:29.863Z,103058.09
2019-02-14T23:16:05.824Z,103055.30
2019-02-14T23:18:36.908Z,103052.98
2019-02-14T23:21:07.235Z,103052.98
2019-02-14T23:23:37.720Z,103061.31
2019-02-14T23:26:09.854Z,103066.86
2019-02-14T23:29:29.333Z,103063.02
2019-02-14T23:31:14.066Z,103061.75
2019-02-14T23:33:44.397Z,103064.72
2019-02-14T23:36:14.994Z,103062.27
2019-02-14T23:38:46.401Z,103062.27
2019-02-14T23:41:16.648Z,103070.75
2019-02-14T23:43:47.027Z,103069.98
2019-02-14T23:46:17.759Z,103064.72
2019-02-14T23:48:49.129Z,103064.72
2019-02-14T23:51:20.689Z,103072.15
2019-02-14T23:53:51.295Z,103070.60
2019-02-14T23:56:23.210Z,103073.14
2019-02-14T23:58:53.509Z,103072.61
